sensor_id;sensor_type;location;lat;lon;timestamp;noise_LAeq;noise_LA_min;noise_LA_max;noise_LA01;noise_LA95
71030;Laerm;63723;51.436;5.976;2023-01-30T00:00:09;49.61;48.61;50.92;;
71030;Laerm;63723;51.436;5.976;2023-01-30T00:00:19;49.64;48.65;51.35;;
71030;Laerm;63723;51.436;5.976;2023-01-30T00:00:30;49.64;48.68;51.71;;
71030;Laerm;63723;51.436;5.976;2023-01-30T00:00:41;49.81;48.59;52.08;;
71030;Laerm;63723;51.436;5.976;2023-01-30T00:00:52;49.86;48.78;51.36;;
71030;Laerm;63723;51.436;5.976;2023-01-30T00:01:03;49.69;48.69;50.77;;
71030;Laerm;63723;51.436;5.976;2023-01-30T00:01:15;49.71;48.56;50.91;;
71030;Laerm;63723;51.436;5.976;2023-01-30T00:01:28;49.69;48.25;51.25;;
71030;Laerm;63723;51.436;5.976;2023-01-30T00:01:39;49.66;48.54;51.61;;
71030;Laerm;63723;51.436;5.976;2023-01-30T00:01:50;49.66;48.53;51.64;;
71030;Laerm;63723;51.436;5.976;2023-01-30T00:02:00;49.73;48.59;50.71;;
71030;Laerm;63723;51.436;5.976;2023-01-30T00:02:13;49.63;48.62;51.05;;
71030;Laerm;63723;51.436;5.976;2023-01-30T00:02:23;49.69;48.49;50.66;;
71030;Laerm;63723;51.436;5.976;2023-01-30T00:02:33;49.70;48.36;51.79;;
71030;Laerm;63723;51.436;5.976;2023-01-30T00:02:44;49.63;48.62;51.21;;
71030;Laerm;63723;51.436;5.976;2023-01-30T00:02:54;49.90;48.54;58.99;;
71030;Laerm;63723;51.436;5.976;2023-01-30T00:03:04;49.92;48.95;51.92;;
71030;Laerm;63723;51.436;5.976;2023-01-30T00:03:15;49.88;48.32;51.28;;
71030;Laerm;63723;51.436;5.976;2023-01-30T00:03:25;50.43;48.65;57.48;;
71030;Laerm;63723;51.436;5.976;2023-01-30T00:03:35;49.87;48.66;51.39;;
71030;Laerm;63723;51.436;5.976;2023-01-30T00:03:46;49.88;48.82;50.95;;
71030;Laerm;63723;51.436;5.976;2023-01-30T00:03:56;49.86;48.81;51.16;;
71030;Laerm;63723;51.436;5.976;2023-01-30T00:04:06;49.88;48.56;52.80;;
71030;Laerm;63723;51.436;5.976;2023-01-30T00:04:17;49.86;48.67;51.13;;
71030;Laerm;63723;51.436;5.976;2023-01-30T00:04:27;49.95;48.87;50.90;;
71030;Laerm;63723;51.436;5.976;2023-01-30T00:04:37;49.91;49.00;51.08;;
71030;Laerm;63723;51.436;5.976;2023-01-30T00:04:47;49.97;48.66;51.82;;
71030;Laerm;63723;51.436;5.976;2023-01-30T00:04:58;49.95;48.97;51.41;;
71030;Laerm;63723;51.436;5.976;2023-01-30T00:05:08;49.97;48.82;51.33;;
71030;Laerm;63723;51.436;5.976;2023-01-30T00:05:18;49.99;48.70;51.64;;
71030;Laerm;63723;51.436;5.976;2023-01-30T00:05:29;50.00;48.70;57.56;;
71030;Laerm;63723;51.436;5.976;2023-01-30T00:05:39;49.86;48.72;51.68;;
71030;Laerm;63723;51.436;5.976;2023-01-30T00:05:49;49.84;48.67;51.11;;
71030;Laerm;63723;51.436;5.976;2023-01-30T00:06:00;49.87;48.99;50.94;;
71030;Laerm;63723;51.436;5.976;2023-01-30T00:06:10;50.63;48.35;58.61;;
71030;Laerm;63723;51.436;5.976;2023-01-30T00:06:21;54.14;49.28;58.59;;
71030;Laerm;63723;51.436;5.976;2023-01-30T00:06:31;54.02;49.65;55.27;;
71030;Laerm;63723;51.436;5.976;2023-01-30T00:06:42;52.01;48.91;56.45;;
71030;Laerm;63723;51.436;5.976;2023-01-30T00:06:52;51.26;49.97;56.65;;
71030;Laerm;63723;51.436;5.976;2023-01-30T00:07:02;51.12;49.98;53.44;;
71030;Laerm;63723;51.436;5.976;2023-01-30T00:07:12;51.67;49.70;53.74;;
71030;Laerm;63723;51.436;5.976;2023-01-30T00:07:23;51.49;49.12;56.92;;
71030;Laerm;63723;51.436;5.976;2023-01-30T00:07:33;52.39;50.68;55.00;;
71030;Laerm;63723;51.436;5.976;2023-01-30T00:07:45;52.51;51.01;58.35;;
71030;Laerm;63723;51.436;5.976;2023-01-30T00:07:55;50.98;49.24;53.37;;
71030;Laerm;63723;51.436;5.976;2023-01-30T00:08:05;50.36;49.12;56.97;;
71030;Laerm;63723;51.436;5.976;2023-01-30T00:08:16;50.37;49.00;56.59;;
71030;Laerm;63723;51.436;5.976;2023-01-30T00:08:26;50.41;48.95;56.69;;
71030;Laerm;63723;51.436;5.976;2023-01-30T00:08:37;50.37;49.22;55.66;;
71030;Laerm;63723;51.436;5.976;2023-01-30T00:08:47;50.18;48.55;52.84;;
71030;Laerm;63723;51.436;5.976;2023-01-30T00:08:57;50.32;48.82;55.69;;
71030;Laerm;63723;51.436;5.976;2023-01-30T00:09:09;50.24;48.98;52.71;;
71030;Laerm;63723;51.436;5.976;2023-01-30T00:09:20;50.35;48.90;53.31;;
71030;Laerm;63723;51.436;5.976;2023-01-30T00:09:30;50.27;48.91;55.73;;
71030;Laerm;63723;51.436;5.976;2023-01-30T00:09:40;50.25;48.82;56.20;;
71030;Laerm;63723;51.436;5.976;2023-01-30T00:09:51;50.08;48.82;52.85;;
71030;Laerm;63723;51.436;5.976;2023-01-30T00:10:01;50.19;49.21;52.69;;
71030;Laerm;63723;51.436;5.976;2023-01-30T00:10:12;50.35;49.14;52.87;;
71030;Laerm;63723;51.436;5.976;2023-01-30T00:10:22;50.35;48.85;56.88;;
71030;Laerm;63723;51.436;5.976;2023-01-30T00:10:33;50.32;48.83;53.12;;
71030;Laerm;63723;51.436;5.976;2023-01-30T00:10:43;50.85;49.16;55.43;;
71030;Laerm;63723;51.436;5.976;2023-01-30T00:10:54;51.10;49.27;57.08;;
71030;Laerm;63723;51.436;5.976;2023-01-30T00:11:05;50.98;49.60;55.60;;
71030;Laerm;63723;51.436;5.976;2023-01-30T00:11:16;50.92;49.77;56.45;;
71030;Laerm;63723;51.436;5.976;2023-01-30T00:11:28;51.03;49.58;55.59;;
71030;Laerm;63723;51.436;5.976;2023-01-30T00:11:41;50.94;49.65;54.05;;
71030;Laerm;63723;51.436;5.976;2023-01-30T00:11:51;50.96;49.72;56.90;;
71030;Laerm;63723;51.436;5.976;2023-01-30T00:12:02;50.75;49.23;52.78;;
71030;Laerm;63723;51.436;5.976;2023-01-30T00:12:12;50.69;48.97;54.71;;
71030;Laerm;63723;51.436;5.976;2023-01-30T00:12:22;50.90;49.46;54.87;;
71030;Laerm;63723;51.436;5.976;2023-01-30T00:12:33;50.86;49.69;53.22;;
71030;Laerm;63723;51.436;5.976;2023-01-30T00:12:43;50.87;49.70;55.67;;
71030;Laerm;63723;51.436;5.976;2023-01-30T00:12:54;50.81;49.44;53.18;;
71030;Laerm;63723;51.436;5.976;2023-01-30T00:13:04;50.70;49.56;53.64;;
71030;Laerm;63723;51.436;5.976;2023-01-30T00:13:14;50.97;49.40;53.15;;
71030;Laerm;63723;51.436;5.976;2023-01-30T00:13:24;51.31;49.79;53.55;;
71030;Laerm;63723;51.436;5.976;2023-01-30T00:13:35;50.81;49.72;53.13;;
71030;Laerm;63723;51.436;5.976;2023-01-30T00:13:49;50.93;49.51;52.94;;
71030;Laerm;63723;51.436;5.976;2023-01-30T00:13:59;51.18;49.70;56.21;;
71030;Laerm;63723;51.436;5.976;2023-01-30T00:14:12;51.15;49.48;56.68;;
71030;Laerm;63723;51.436;5.976;2023-01-30T00:14:22;51.19;49.82;52.81;;
71030;Laerm;63723;51.436;5.976;2023-01-30T00:14:33;51.44;49.87;53.49;;
71030;Laerm;63723;51.436;5.976;2023-01-30T00:14:43;51.25;50.14;53.33;;
71030;Laerm;63723;51.436;5.976;2023-01-30T00:14:53;51.26;49.98;53.65;;
71030;Laerm;63723;51.436;5.976;2023-01-30T00:15:04;51.30;49.43;53.36;;
71030;Laerm;63723;51.436;5.976;2023-01-30T00:15:14;51.26;49.98;56.96;;
71030;Laerm;63723;51.436;5.976;2023-01-30T00:15:24;51.05;49.45;58.07;;
71030;Laerm;63723;51.436;5.976;2023-01-30T00:15:35;51.18;49.64;53.05;;
71030;Laerm;63723;51.436;5.976;2023-01-30T00:15:46;51.29;49.77;56.75;;
71030;Laerm;63723;51.436;5.976;2023-01-30T00:15:57;51.17;49.31;53.39;;
71030;Laerm;63723;51.436;5.976;2023-01-30T00:16:07;51.05;49.55;56.97;;
71030;Laerm;63723;51.436;5.976;2023-01-30T00:16:21;51.08;49.32;56.40;;
71030;Laerm;63723;51.436;5.976;2023-01-30T00:16:31;51.18;49.79;53.47;;
71030;Laerm;63723;51.436;5.976;2023-01-30T00:16:41;51.12;50.04;53.42;;
71030;Laerm;63723;51.436;5.976;2023-01-30T00:16:51;51.33;49.94;57.42;;
71030;Laerm;63723;51.436;5.976;2023-01-30T00:17:02;51.42;49.97;53.43;;
71030;Laerm;63723;51.436;5.976;2023-01-30T00:17:12;51.37;49.17;56.31;;
71030;Laerm;63723;51.436;5.976;2023-01-30T00:17:22;51.50;50.09;55.53;;
71030;Laerm;63723;51.436;5.976;2023-01-30T00:17:33;51.05;49.74;53.74;;
71030;Laerm;63723;51.436;5.976;2023-01-30T00:17:43;51.23;49.47;53.84;;
71030;Laerm;63723;51.436;5.976;2023-01-30T00:17:54;51.28;49.96;54.02;;
71030;Laerm;63723;51.436;5.976;2023-01-30T00:18:04;51.27;49.02;53.00;;
71030;Laerm;63723;51.436;5.976;2023-01-30T00:18:14;51.26;49.69;56.33;;
71030;Laerm;63723;51.436;5.976;2023-01-30T00:18:24;51.10;50.08;56.98;;
71030;Laerm;63723;51.436;5.976;2023-01-30T00:18:36;51.15;49.06;53.70;;
71030;Laerm;63723;51.436;5.976;2023-01-30T00:18:46;51.25;49.92;56.35;;
71030;Laerm;63723;51.436;5.976;2023-01-30T00:18:57;51.56;50.04;55.89;;
71030;Laerm;63723;51.436;5.976;2023-01-30T00:19:07;54.56;51.04;59.88;;
71030;Laerm;63723;51.436;5.976;2023-01-30T00:19:17;53.04;49.58;58.14;;
71030;Laerm;63723;51.436;5.976;2023-01-30T00:19:27;51.50;49.66;57.01;;
71030;Laerm;63723;51.436;5.976;2023-01-30T00:19:38;51.62;50.66;53.73;;
71030;Laerm;63723;51.436;5.976;2023-01-30T00:19:48;51.57;48.97;56.27;;
71030;Laerm;63723;51.436;5.976;2023-01-30T00:19:58;51.62;50.16;57.64;;
71030;Laerm;63723;51.436;5.976;2023-01-30T00:20:09;51.85;49.52;56.81;;
71030;Laerm;63723;51.436;5.976;2023-01-30T00:20:19;51.85;49.72;57.48;;
71030;Laerm;63723;51.436;5.976;2023-01-30T00:20:30;51.87;50.21;56.76;;
71030;Laerm;63723;51.436;5.976;2023-01-30T00:20:40;51.59;49.49;53.84;;
71030;Laerm;63723;51.436;5.976;2023-01-30T00:20:54;51.94;49.80;56.79;;
71030;Laerm;63723;51.436;5.976;2023-01-30T00:21:05;52.08;49.82;56.08;;
71030;Laerm;63723;51.436;5.976;2023-01-30T00:21:16;52.19;49.79;56.29;;
71030;Laerm;63723;51.436;5.976;2023-01-30T00:21:26;52.03;50.10;57.03;;
71030;Laerm;63723;51.436;5.976;2023-01-30T00:21:37;52.06;49.36;56.52;;
71030;Laerm;63723;51.436;5.976;2023-01-30T00:21:47;51.67;49.19;56.72;;
71030;Laerm;63723;51.436;5.976;2023-01-30T00:21:57;51.14;48.98;56.09;;
71030;Laerm;63723;51.436;5.976;2023-01-30T00:22:07;51.43;48.77;57.74;;
71030;Laerm;63723;51.436;5.976;2023-01-30T00:22:18;49.76;48.58;51.18;;
71030;Laerm;63723;51.436;5.976;2023-01-30T00:22:28;49.75;48.66;51.12;;
71030;Laerm;63723;51.436;5.976;2023-01-30T00:22:38;49.95;48.55;57.37;;
71030;Laerm;63723;51.436;5.976;2023-01-30T00:22:48;51.10;48.76;57.76;;
71030;Laerm;63723;51.436;5.976;2023-01-30T00:22:59;51.25;48.88;57.35;;
71030;Laerm;63723;51.436;5.976;2023-01-30T00:23:09;51.21;48.78;57.53;;
71030;Laerm;63723;51.436;5.976;2023-01-30T00:23:19;51.07;48.88;57.66;;
71030;Laerm;63723;51.436;5.976;2023-01-30T00:23:30;50.68;48.93;53.00;;
71030;Laerm;63723;51.436;5.976;2023-01-30T00:23:41;50.05;48.56;53.03;;
71030;Laerm;63723;51.436;5.976;2023-01-30T00:23:52;50.27;48.75;52.33;;
71030;Laerm;63723;51.436;5.976;2023-01-30T00:24:02;50.96;49.15;58.96;;
71030;Laerm;63723;51.436;5.976;2023-01-30T00:24:12;50.86;48.87;52.98;;
71030;Laerm;63723;51.436;5.976;2023-01-30T00:24:23;50.81;48.83;53.28;;
71030;Laerm;63723;51.436;5.976;2023-01-30T00:24:33;50.78;49.00;53.02;;
71030;Laerm;63723;51.436;5.976;2023-01-30T00:24:43;50.84;48.78;53.00;;
71030;Laerm;63723;51.436;5.976;2023-01-30T00:24:53;50.67;48.70;54.70;;
71030;Laerm;63723;51.436;5.976;2023-01-30T00:25:04;50.56;48.72;53.49;;
71030;Laerm;63723;51.436;5.976;2023-01-30T00:25:14;50.61;48.60;53.00;;
71030;Laerm;63723;51.436;5.976;2023-01-30T00:25:25;50.69;48.57;53.23;;
71030;Laerm;63723;51.436;5.976;2023-01-30T00:25:43;50.59;48.83;52.86;;
71030;Laerm;63723;51.436;5.976;2023-01-30T00:25:54;50.64;48.74;52.80;;
71030;Laerm;63723;51.436;5.976;2023-01-30T00:26:05;50.52;48.71;53.14;;
71030;Laerm;63723;51.436;5.976;2023-01-30T00:26:16;50.70;48.82;59.18;;
71030;Laerm;63723;51.436;5.976;2023-01-30T00:26:26;50.54;48.60;52.91;;
71030;Laerm;63723;51.436;5.976;2023-01-30T00:26:36;50.57;48.85;53.51;;
71030;Laerm;63723;51.436;5.976;2023-01-30T00:26:46;50.64;48.78;53.29;;
71030;Laerm;63723;51.436;5.976;2023-01-30T00:26:57;50.30;48.85;52.24;;
71030;Laerm;63723;51.436;5.976;2023-01-30T00:27:07;50.12;48.42;52.03;;
71030;Laerm;63723;51.436;5.976;2023-01-30T00:27:17;50.20;48.51;53.21;;
71030;Laerm;63723;51.436;5.976;2023-01-30T00:27:28;50.21;48.53;53.67;;
71030;Laerm;63723;51.436;5.976;2023-01-30T00:27:38;50.39;48.49;52.57;;
71030;Laerm;63723;51.436;5.976;2023-01-30T00:27:49;50.35;48.72;52.78;;
71030;Laerm;63723;51.436;5.976;2023-01-30T00:27:59;50.22;48.01;52.30;;
71030;Laerm;63723;51.436;5.976;2023-01-30T00:28:10;50.22;48.03;52.31;;
71030;Laerm;63723;51.436;5.976;2023-01-30T00:28:20;50.24;48.72;52.14;;
71030;Laerm;63723;51.436;5.976;2023-01-30T00:28:31;50.30;48.86;52.33;;
71030;Laerm;63723;51.436;5.976;2023-01-30T00:28:41;50.49;48.53;56.81;;
71030;Laerm;63723;51.436;5.976;2023-01-30T00:28:51;50.67;48.96;58.75;;
71030;Laerm;63723;51.436;5.976;2023-01-30T00:29:01;50.36;48.75;52.74;;
71030;Laerm;63723;51.436;5.976;2023-01-30T00:29:12;50.40;48.68;52.82;;
71030;Laerm;63723;51.436;5.976;2023-01-30T00:29:22;50.35;48.42;52.40;;
71030;Laerm;63723;51.436;5.976;2023-01-30T00:29:32;50.40;48.58;53.14;;
71030;Laerm;63723;51.436;5.976;2023-01-30T00:29:43;50.24;48.62;52.78;;
71030;Laerm;63723;51.436;5.976;2023-01-30T00:29:53;50.41;48.45;52.19;;
71030;Laerm;63723;51.436;5.976;2023-01-30T00:30:03;50.41;48.79;52.60;;
71030;Laerm;63723;51.436;5.976;2023-01-30T00:30:16;50.62;48.32;57.25;;
71030;Laerm;63723;51.436;5.976;2023-01-30T00:30:26;50.46;48.70;52.92;;
71030;Laerm;63723;51.436;5.976;2023-01-30T00:30:37;50.35;48.83;52.99;;
71030;Laerm;63723;51.436;5.976;2023-01-30T00:30:47;50.45;48.85;52.38;;
71030;Laerm;63723;51.436;5.976;2023-01-30T00:30:58;50.51;48.66;52.74;;
71030;Laerm;63723;51.436;5.976;2023-01-30T00:31:08;51.01;48.77;58.26;;
71030;Laerm;63723;51.436;5.976;2023-01-30T00:31:18;50.68;48.96;58.20;;
71030;Laerm;63723;51.436;5.976;2023-01-30T00:31:29;50.48;48.67;53.01;;
71030;Laerm;63723;51.436;5.976;2023-01-30T00:31:39;50.50;48.85;52.79;;
71030;Laerm;63723;51.436;5.976;2023-01-30T00:31:49;50.56;48.56;58.73;;
71030;Laerm;63723;51.436;5.976;2023-01-30T00:31:59;50.49;48.86;52.27;;
71030;Laerm;63723;51.436;5.976;2023-01-30T00:32:10;50.54;48.34;58.51;;
71030;Laerm;63723;51.436;5.976;2023-01-30T00:32:20;50.49;48.66;52.84;;
71030;Laerm;63723;51.436;5.976;2023-01-30T00:32:30;50.58;48.49;57.87;;
71030;Laerm;63723;51.436;5.976;2023-01-30T00:32:41;50.50;48.47;52.98;;
71030;Laerm;63723;51.436;5.976;2023-01-30T00:32:57;50.62;48.72;53.28;;
71030;Laerm;63723;51.436;5.976;2023-01-30T00:33:08;50.61;48.90;56.52;;
71030;Laerm;63723;51.436;5.976;2023-01-30T00:33:19;50.71;48.81;57.96;;
71030;Laerm;63723;51.436;5.976;2023-01-30T00:33:30;50.58;48.37;52.99;;
71030;Laerm;63723;51.436;5.976;2023-01-30T00:33:40;50.66;48.67;58.88;;
71030;Laerm;63723;51.436;5.976;2023-01-30T00:33:50;50.50;48.41;52.29;;
71030;Laerm;63723;51.436;5.976;2023-01-30T00:34:01;50.73;48.41;52.69;;
71030;Laerm;63723;51.436;5.976;2023-01-30T00:34:11;50.82;48.74;58.32;;
71030;Laerm;63723;51.436;5.976;2023-01-30T00:34:21;52.20;48.55;61.56;;
71030;Laerm;63723;51.436;5.976;2023-01-30T00:34:31;51.64;48.26;56.47;;
71030;Laerm;63723;51.436;5.976;2023-01-30T00:34:43;51.94;48.94;62.71;;
71030;Laerm;63723;51.436;5.976;2023-01-30T00:34:53;51.89;48.77;60.72;;
71030;Laerm;63723;51.436;5.976;2023-01-30T00:35:03;51.50;48.41;56.23;;
71030;Laerm;63723;51.436;5.976;2023-01-30T00:35:15;50.84;48.51;56.11;;
71030;Laerm;63723;51.436;5.976;2023-01-30T00:35:26;54.37;48.82;65.81;;
71030;Laerm;63723;51.436;5.976;2023-01-30T00:35:45;50.14;48.22;54.24;;
71030;Laerm;63723;51.436;5.976;2023-01-30T00:35:57;50.03;48.55;53.18;;
71030;Laerm;63723;51.436;5.976;2023-01-30T00:36:08;51.46;49.12;63.29;;
71030;Laerm;63723;51.436;5.976;2023-01-30T00:36:19;50.21;48.68;52.85;;
71030;Laerm;63723;51.436;5.976;2023-01-30T00:36:29;50.24;48.83;51.57;;
71030;Laerm;63723;51.436;5.976;2023-01-30T00:36:39;52.92;48.99;64.21;;
71030;Laerm;63723;51.436;5.976;2023-01-30T00:36:50;50.22;48.52;52.23;;
71030;Laerm;63723;51.436;5.976;2023-01-30T00:37:00;50.18;48.72;52.49;;
71030;Laerm;63723;51.436;5.976;2023-01-30T00:37:10;51.76;48.65;63.38;;
71030;Laerm;63723;51.436;5.976;2023-01-30T00:37:20;53.15;49.00;63.36;;
71030;Laerm;63723;51.436;5.976;2023-01-30T00:37:31;50.77;48.88;63.25;;
71030;Laerm;63723;51.436;5.976;2023-01-30T00:37:41;50.24;48.91;51.97;;
71030;Laerm;63723;51.436;5.976;2023-01-30T00:37:51;51.54;49.01;62.60;;
71030;Laerm;63723;51.436;5.976;2023-01-30T00:38:01;50.30;48.94;52.27;;
71030;Laerm;63723;51.436;5.976;2023-01-30T00:38:12;50.22;48.76;53.38;;
71030;Laerm;63723;51.436;5.976;2023-01-30T00:38:22;50.25;48.84;53.28;;
71030;Laerm;63723;51.436;5.976;2023-01-30T00:38:33;50.25;48.89;53.20;;
71030;Laerm;63723;51.436;5.976;2023-01-30T00:38:43;50.27;48.70;52.11;;
71030;Laerm;63723;51.436;5.976;2023-01-30T00:38:55;50.56;48.75;61.88;;
71030;Laerm;63723;51.436;5.976;2023-01-30T00:39:05;53.48;48.65;63.42;;
71030;Laerm;63723;51.436;5.976;2023-01-30T00:39:16;50.11;48.55;54.12;;
71030;Laerm;63723;51.436;5.976;2023-01-30T00:39:26;50.32;48.83;52.09;;
71030;Laerm;63723;51.436;5.976;2023-01-30T00:39:36;51.41;48.87;63.35;;
71030;Laerm;63723;51.436;5.976;2023-01-30T00:39:46;51.19;49.13;63.74;;
71030;Laerm;63723;51.436;5.976;2023-01-30T00:39:57;50.84;49.07;62.53;;
71030;Laerm;63723;51.436;5.976;2023-01-30T00:40:07;53.50;48.99;64.35;;
71030;Laerm;63723;51.436;5.976;2023-01-30T00:40:18;50.41;49.03;52.20;;
71030;Laerm;63723;51.436;5.976;2023-01-30T00:40:28;55.67;48.99;64.78;;
71030;Laerm;63723;51.436;5.976;2023-01-30T00:40:38;51.28;48.81;64.58;;
71030;Laerm;63723;51.436;5.976;2023-01-30T00:40:49;50.59;48.88;63.52;;
71030;Laerm;63723;51.436;5.976;2023-01-30T00:40:59;50.17;49.21;51.87;;
71030;Laerm;63723;51.436;5.976;2023-01-30T00:41:09;50.34;48.64;53.90;;
71030;Laerm;63723;51.436;5.976;2023-01-30T00:41:22;50.86;48.94;63.35;;
71030;Laerm;63723;51.436;5.976;2023-01-30T00:41:32;50.36;49.18;52.07;;
71030;Laerm;63723;51.436;5.976;2023-01-30T00:42:01;50.39;48.93;54.85;;
71030;Laerm;63723;51.436;5.976;2023-01-30T00:42:50;50.82;48.53;64.08;;
71030;Laerm;63723;51.436;5.976;2023-01-30T00:43:20;53.01;48.67;65.46;;
71030;Laerm;63723;51.436;5.976;2023-01-30T00:43:49;50.30;48.76;52.57;;
71030;Laerm;63723;51.436;5.976;2023-01-30T00:44:18;53.35;48.64;64.55;;
71030;Laerm;63723;51.436;5.976;2023-01-30T00:44:47;52.35;48.77;64.49;;
71030;Laerm;63723;51.436;5.976;2023-01-30T00:45:16;52.03;48.90;64.72;;
71030;Laerm;63723;51.436;5.976;2023-01-30T00:45:45;51.18;48.67;63.74;;
71030;Laerm;63723;51.436;5.976;2023-01-30T00:46:31;55.25;48.76;65.14;;
71030;Laerm;63723;51.436;5.976;2023-01-30T00:47:01;51.46;48.82;64.14;;
71030;Laerm;63723;51.436;5.976;2023-01-30T00:47:14;50.66;48.81;62.87;;
71030;Laerm;63723;51.436;5.976;2023-01-30T00:47:24;50.29;48.93;52.30;;
71030;Laerm;63723;51.436;5.976;2023-01-30T00:47:34;53.12;49.26;64.55;;
71030;Laerm;63723;51.436;5.976;2023-01-30T00:47:45;51.93;48.87;63.92;;
71030;Laerm;63723;51.436;5.976;2023-01-30T00:47:57;52.51;48.96;65.31;;
71030;Laerm;63723;51.436;5.976;2023-01-30T00:48:08;53.15;49.21;64.99;;
71030;Laerm;63723;51.436;5.976;2023-01-30T00:48:19;50.59;48.96;54.06;;
71030;Laerm;63723;51.436;5.976;2023-01-30T00:48:29;51.20;49.09;57.70;;
71030;Laerm;63723;51.436;5.976;2023-01-30T00:48:40;50.05;48.71;51.56;;
71030;Laerm;63723;51.436;5.976;2023-01-30T00:48:50;49.97;48.57;51.53;;
71030;Laerm;63723;51.436;5.976;2023-01-30T00:49:00;49.97;48.72;51.12;;
71030;Laerm;63723;51.436;5.976;2023-01-30T00:49:11;49.95;48.70;51.18;;
71030;Laerm;63723;51.436;5.976;2023-01-30T00:49:21;49.88;48.63;51.20;;
71030;Laerm;63723;51.436;5.976;2023-01-30T00:49:31;49.84;48.53;51.06;;
71030;Laerm;63723;51.436;5.976;2023-01-30T00:49:42;49.92;48.69;51.22;;
71030;Laerm;63723;51.436;5.976;2023-01-30T00:49:52;50.01;48.76;51.15;;
71030;Laerm;63723;51.436;5.976;2023-01-30T00:50:02;50.02;48.69;51.59;;
71030;Laerm;63723;51.436;5.976;2023-01-30T00:50:13;50.01;48.60;51.61;;
71030;Laerm;63723;51.436;5.976;2023-01-30T00:50:23;50.09;48.57;51.97;;
71030;Laerm;63723;51.436;5.976;2023-01-30T00:50:34;49.95;48.49;51.24;;
71030;Laerm;63723;51.436;5.976;2023-01-30T00:50:53;51.16;48.94;54.82;;
71030;Laerm;63723;51.436;5.976;2023-01-30T00:51:03;52.26;50.09;53.89;;
71030;Laerm;63723;51.436;5.976;2023-01-30T00:51:14;52.23;50.21;54.08;;
71030;Laerm;63723;51.436;5.976;2023-01-30T00:51:24;52.26;50.15;54.02;;
71030;Laerm;63723;51.436;5.976;2023-01-30T00:51:34;51.83;49.87;53.74;;
71030;Laerm;63723;51.436;5.976;2023-01-30T00:51:45;52.38;50.70;54.32;;
71030;Laerm;63723;51.436;5.976;2023-01-30T00:51:55;52.16;48.94;54.11;;
71030;Laerm;63723;51.436;5.976;2023-01-30T00:52:05;52.13;49.60;53.69;;
71030;Laerm;63723;51.436;5.976;2023-01-30T00:52:16;52.17;50.21;53.71;;
71030;Laerm;63723;51.436;5.976;2023-01-30T00:52:26;51.96;50.18;53.66;;
71030;Laerm;63723;51.436;5.976;2023-01-30T00:52:36;51.94;49.86;53.68;;
71030;Laerm;63723;51.436;5.976;2023-01-30T00:52:46;51.92;49.51;53.43;;
71030;Laerm;63723;51.436;5.976;2023-01-30T00:52:57;52.00;49.65;53.81;;
71030;Laerm;63723;51.436;5.976;2023-01-30T00:53:10;52.05;49.07;53.94;;
71030;Laerm;63723;51.436;5.976;2023-01-30T00:53:20;52.15;49.34;54.14;;
71030;Laerm;63723;51.436;5.976;2023-01-30T00:53:31;51.27;48.75;53.44;;
71030;Laerm;63723;51.436;5.976;2023-01-30T00:53:41;51.95;49.20;53.63;;
71030;Laerm;63723;51.436;5.976;2023-01-30T00:53:51;52.14;49.83;54.03;;
71030;Laerm;63723;51.436;5.976;2023-01-30T00:54:02;52.04;49.69;53.62;;
71030;Laerm;63723;51.436;5.976;2023-01-30T00:54:12;52.07;50.18;53.68;;
71030;Laerm;63723;51.436;5.976;2023-01-30T00:54:23;52.16;49.98;53.75;;
71030;Laerm;63723;51.436;5.976;2023-01-30T00:54:33;52.06;49.67;53.97;;
71030;Laerm;63723;51.436;5.976;2023-01-30T00:54:44;52.08;50.29;53.62;;
71030;Laerm;63723;51.436;5.976;2023-01-30T00:54:54;52.03;49.60;54.09;;
71030;Laerm;63723;51.436;5.976;2023-01-30T00:55:04;52.07;50.31;54.02;;
71030;Laerm;63723;51.436;5.976;2023-01-30T00:55:15;51.96;49.44;54.37;;
71030;Laerm;63723;51.436;5.976;2023-01-30T00:55:25;51.78;49.78;53.75;;
71030;Laerm;63723;51.436;5.976;2023-01-30T00:55:35;52.31;49.52;54.24;;
71030;Laerm;63723;51.436;5.976;2023-01-30T00:55:45;51.59;49.24;53.24;;
71030;Laerm;63723;51.436;5.976;2023-01-30T00:55:56;51.62;49.46;53.82;;
71030;Laerm;63723;51.436;5.976;2023-01-30T00:56:06;51.52;50.16;53.55;;
71030;Laerm;63723;51.436;5.976;2023-01-30T00:56:16;51.64;49.98;53.19;;
71030;Laerm;63723;51.436;5.976;2023-01-30T00:56:27;51.66;49.44;53.33;;
71030;Laerm;63723;51.436;5.976;2023-01-30T00:56:37;51.72;50.00;53.81;;
71030;Laerm;63723;51.436;5.976;2023-01-30T00:56:47;52.32;49.27;54.48;;
71030;Laerm;63723;51.436;5.976;2023-01-30T00:56:57;52.62;50.31;54.39;;
71030;Laerm;63723;51.436;5.976;2023-01-30T00:57:08;52.61;49.44;54.77;;
71030;Laerm;63723;51.436;5.976;2023-01-30T00:57:18;52.52;50.40;54.63;;
71030;Laerm;63723;51.436;5.976;2023-01-30T00:57:28;52.37;50.05;54.43;;
71030;Laerm;63723;51.436;5.976;2023-01-30T00:57:39;52.57;50.63;54.85;;
71030;Laerm;63723;51.436;5.976;2023-01-30T00:57:49;52.62;49.81;54.88;;
71030;Laerm;63723;51.436;5.976;2023-01-30T00:57:59;52.38;50.04;54.38;;
71030;Laerm;63723;51.436;5.976;2023-01-30T00:58:10;52.68;50.13;54.47;;
71030;Laerm;63723;51.436;5.976;2023-01-30T00:58:21;52.80;50.50;54.81;;
71030;Laerm;63723;51.436;5.976;2023-01-30T00:58:31;52.59;49.09;54.62;;
71030;Laerm;63723;51.436;5.976;2023-01-30T00:58:42;52.62;50.03;54.59;;
71030;Laerm;63723;51.436;5.976;2023-01-30T00:58:53;52.47;50.49;54.34;;
71030;Laerm;63723;51.436;5.976;2023-01-30T00:59:03;52.60;50.55;54.54;;
71030;Laerm;63723;51.436;5.976;2023-01-30T00:59:13;52.31;49.47;54.12;;
71030;Laerm;63723;51.436;5.976;2023-01-30T00:59:24;51.97;50.01;53.52;;
71030;Laerm;63723;51.436;5.976;2023-01-30T00:59:34;51.97;49.81;54.19;;
71030;Laerm;63723;51.436;5.976;2023-01-30T00:59:44;50.84;49.37;53.71;;
71030;Laerm;63723;51.436;5.976;2023-01-30T00:59:54;50.68;49.30;53.98;;
71030;Laerm;63723;51.436;5.976;2023-01-30T01:00:05;50.79;49.25;53.98;;
71030;Laerm;63723;51.436;5.976;2023-01-30T01:00:15;51.02;49.12;53.91;;
71030;Laerm;63723;51.436;5.976;2023-01-30T01:00:27;51.20;49.26;54.26;;
71030;Laerm;63723;51.436;5.976;2023-01-30T01:00:37;51.44;49.26;55.19;;
71030;Laerm;63723;51.436;5.976;2023-01-30T01:00:47;50.95;48.47;54.77;;
71030;Laerm;63723;51.436;5.976;2023-01-30T01:00:58;51.00;48.76;54.71;;
71030;Laerm;63723;51.436;5.976;2023-01-30T01:01:08;50.48;48.62;54.81;;
71030;Laerm;63723;51.436;5.976;2023-01-30T01:01:18;50.58;48.92;54.08;;
71030;Laerm;63723;51.436;5.976;2023-01-30T01:01:29;50.74;48.75;53.63;;
71030;Laerm;63723;51.436;5.976;2023-01-30T01:01:39;50.80;48.91;53.84;;
71030;Laerm;63723;51.436;5.976;2023-01-30T01:01:49;50.34;48.69;53.39;;
71030;Laerm;63723;51.436;5.976;2023-01-30T01:02:00;50.45;48.96;53.60;;
71030;Laerm;63723;51.436;5.976;2023-01-30T01:02:10;50.97;48.80;54.49;;
71030;Laerm;63723;51.436;5.976;2023-01-30T01:02:21;50.77;48.79;54.26;;
71030;Laerm;63723;51.436;5.976;2023-01-30T01:02:31;50.77;48.55;54.13;;
71030;Laerm;63723;51.436;5.976;2023-01-30T01:02:41;50.63;48.87;53.78;;
71030;Laerm;63723;51.436;5.976;2023-01-30T01:02:51;50.54;48.85;54.12;;
71030;Laerm;63723;51.436;5.976;2023-01-30T01:03:02;50.67;48.89;54.40;;
71030;Laerm;63723;51.436;5.976;2023-01-30T01:03:12;50.84;48.78;54.65;;